Time;durP1;ratioP1;P1;durP2;ratioP2;P2;SDS_P1;SDS_P2;PMS_P1;PMS_P2;Temp;Humidity;BMP_temperature;BMP_pressure;BME280_temperature;BME280_humidity;BME280_pressure;Samples;Min_cycle;Max_cycle;Signal;HPM_P1;HPM_P2
2024/03/25 00:02:17;;;;;;;17.57;7.93;;;5.00;1.00;;;;;;5078246;28;20470;-63
2024/03/25 00:04:43;;;;;;;18.97;7.10;;;5.00;1.00;;;;;;5078232;28;20499;-62
2024/03/25 00:07:11;;;;;;;20.97;6.10;;;5.10;1.00;;;;;;5078108;28;20485;-63
2024/03/25 00:09:37;;;;;;;15.13;6.33;;;5.00;42.50;;;;;;5077897;28;20869;-62
2024/03/25 00:12:05;;;;;;;18.07;5.83;;;5.00;67.90;;;;;;5079143;28;20733;-63
2024/03/25 00:14:32;;;;;;;20.17;5.77;;;5.00;31.80;;;;;;5079210;28;20439;-63
2024/03/25 00:16:59;;;;;;;17.37;6.83;;;5.00;1.00;;;;;;5079684;28;20447;-63
2024/03/25 00:19:27;;;;;;;22.60;7.63;;;5.10;1.00;;;;;;5079600;28;20461;-64
2024/03/25 00:21:54;;;;;;;20.77;6.80;;;5.00;1.00;;;;;;5079428;28;20447;-63
2024/03/25 00:24:21;;;;;;;16.37;6.77;;;5.00;1.00;;;;;;5079603;28;20436;-64
2024/03/25 00:26:48;;;;;;;30.10;8.83;;;4.90;1.00;;;;;;5079862;28;20460;-63
2024/03/25 00:29:14;;;;;;;19.30;7.27;;;4.90;1.00;;;;;;5079661;28;20432;-63
2024/03/25 00:31:42;;;;;;;21.10;9.47;;;4.90;1.00;;;;;;5079389;28;20435;-65
2024/03/25 00:34:08;;;;;;;17.87;8.83;;;4.90;1.00;;;;;;5079332;28;20464;-64
2024/03/25 00:36:37;;;;;;;26.80;10.40;;;4.90;1.00;;;;;;5079566;28;20463;-64
2024/03/25 00:39:03;;;;;;;19.53;9.17;;;4.90;1.00;;;;;;5079392;28;20457;-64
2024/03/25 00:41:31;;;;;;;20.90;9.23;;;4.90;1.00;;;;;;5079085;28;20506;-63
2024/03/25 00:43:57;;;;;;;24.17;11.67;;;4.90;1.00;;;;;;5078844;28;20465;-64
2024/03/25 00:46:24;;;;;;;27.50;12.80;;;4.90;1.00;;;;;;5079203;28;20493;-63
2024/03/25 00:48:51;;;;;;;34.37;14.63;;;4.90;98.90;;;;;;5079207;28;20471;-64
2024/03/25 00:51:18;;;;;;;26.73;15.30;;;4.90;1.00;;;;;;5079135;28;20871;-64
2024/03/25 00:53:46;;;;;;;37.53;17.00;;;4.80;14.60;;;;;;5078625;28;20551;-63
2024/03/25 00:56:13;;;;;;;34.00;16.43;;;4.80;1.00;;;;;;5079113;28;20560;-63
2024/03/25 00:58:39;;;;;;;35.30;15.83;;;4.80;1.00;;;;;;5079065;28;20730;-64
2024/03/25 01:01:06;;;;;;;29.23;14.90;;;4.80;1.00;;;;;;5078636;28;20511;-64
2024/03/25 01:03:33;;;;;;;31.40;14.00;;;4.80;1.00;;;;;;5079120;28;20493;-63
2024/03/25 01:06:01;;;;;;;29.63;14.40;;;4.80;1.00;;;;;;5078618;28;20563;-63
2024/03/25 01:08:27;;;;;;;34.10;12.83;;;4.90;1.00;;;;;;5078712;28;20465;-63
2024/03/25 01:10:56;;;;;;;26.03;12.23;;;4.80;1.00;;;;;;5078530;28;20493;-63
2024/03/25 01:13:22;;;;;;;27.23;12.83;;;4.80;1.00;;;;;;5078582;28;20767;-63
2024/03/25 01:15:49;;;;;;;25.27;10.07;;;4.80;1.00;;;;;;5078376;28;20462;-63
2024/03/25 01:18:15;;;;;;;29.77;13.13;;;4.70;1.00;;;;;;5078530;28;20565;-63
2024/03/25 01:20:43;;;;;;;17.47;9.80;;;4.70;1.00;;;;;;5079144;28;20463;-63
2024/03/25 01:23:09;;;;;;;28.67;11.10;;;4.70;1.00;;;;;;5077771;28;20466;-62
2024/03/25 01:25:36;;;;;;;24.77;9.87;;;4.70;5.40;;;;;;5078125;28;20753;-63
2024/03/25 01:28:04;;;;;;;27.30;11.40;;;4.70;1.00;;;;;;5077997;28;20938;-63
2024/03/25 01:30:32;;;;;;;19.37;10.17;;;4.80;57.50;;;;;;5078399;28;20443;-63
2024/03/25 01:32:58;;;;;;;22.87;8.83;;;4.90;34.60;;;;;;5078104;28;20462;-63
2024/03/25 01:35:25;;;;;;;22.30;9.00;;;4.90;25.60;;;;;;5078051;28;20480;-63
2024/03/25 01:37:51;;;;;;;22.80;8.67;;;4.90;1.00;;;;;;5077967;28;20453;-63
2024/03/25 01:40:19;;;;;;;23.07;8.60;;;4.90;5.30;;;;;;5078161;28;20883;-63
2024/03/25 01:42:55;;;;;;;20.03;8.47;;;4.90;16.30;;;;;;5077936;28;20511;-63
2024/03/25 01:45:24;;;;;;;23.13;8.40;;;4.90;12.00;;;;;;5077704;28;20723;-63
2024/03/25 01:47:51;;;;;;;21.90;8.17;;;4.80;9.70;;;;;;5077116;28;20559;-63
2024/03/25 01:50:18;;;;;;;19.27;8.93;;;4.90;93.60;;;;;;5078159;28;20507;-63
2024/03/25 01:52:44;;;;;;;27.63;9.90;;;4.80;27.90;;;;;;5077332;28;20552;-63
2024/03/25 01:55:17;;;;;;;21.40;8.40;;;4.80;6.60;;;;;;5077391;28;20481;-63
2024/03/25 01:57:45;;;;;;;23.17;10.33;;;4.80;1.00;;;;;;5077611;28;20428;-63
2024/03/25 02:00:13;;;;;;;29.20;11.13;;;4.70;1.00;;;;;;5077798;28;20457;-63
2024/03/25 02:02:41;;;;;;;29.77;10.97;;;4.80;1.00;;;;;;5077400;28;20457;-64
2024/03/25 02:05:10;;;;;;;30.73;11.43;;;4.70;1.00;;;;;;5077563;28;20485;-63
2024/03/25 02:07:36;;;;;;;25.53;10.83;;;4.80;1.00;;;;;;5077248;28;20476;-63
2024/03/25 02:10:04;;;;;;;21.57;11.03;;;4.70;1.00;;;;;;5077357;28;20542;-63
2024/03/25 02:12:31;;;;;;;23.20;10.50;;;4.70;1.00;;;;;;5077420;28;20493;-63
2024/03/25 02:14:59;;;;;;;26.03;10.40;;;4.80;1.00;;;;;;5077609;28;20864;-63
2024/03/25 02:17:26;;;;;;;22.30;10.20;;;4.90;1.00;;;;;;5077322;28;20462;-63
2024/03/25 02:19:54;;;;;;;24.43;8.80;;;4.80;1.00;;;;;;5077249;28;20464;-63
2024/03/25 02:22:20;;;;;;;30.23;9.57;;;4.80;1.00;;;;;;5077431;28;20940;-63
2024/03/25 02:24:51;;;;;;;25.43;9.67;;;4.80;1.00;;;;;;5077718;28;20461;-63
2024/03/25 02:27:18;;;;;;;19.83;8.20;;;4.70;1.00;;;;;;5076881;28;20493;-63
2024/03/25 02:29:46;;;;;;;18.37;9.63;;;4.80;1.00;;;;;;5077079;28;20915;-63
2024/03/25 02:32:12;;;;;;;25.23;11.27;;;4.70;1.00;;;;;;5076897;28;20967;-64
2024/03/25 02:34:40;;;;;;;29.07;8.23;;;4.70;1.00;;;;;;5077719;28;20591;-63
2024/03/25 02:37:07;;;;;;;21.13;8.83;;;4.70;1.00;;;;;;5077297;28;20565;-64
2024/03/25 02:39:35;;;;;;;24.20;10.10;;;4.60;1.00;;;;;;5077313;28;20468;-64
2024/03/25 02:42:01;;;;;;;24.40;7.83;;;4.70;1.00;;;;;;5077093;28;20807;-63
2024/03/25 02:44:31;;;;;;;19.27;7.97;;;4.70;1.00;;;;;;5077276;28;20484;-63
2024/03/25 02:46:58;;;;;;;24.83;7.97;;;4.70;1.00;;;;;;5077301;28;20968;-63
2024/03/25 02:49:25;;;;;;;23.63;9.60;;;4.70;1.00;;;;;;5076431;28;20432;-62
2024/03/25 02:51:51;;;;;;;23.03;10.87;;;4.70;1.00;;;;;;5076868;28;20596;-62
2024/03/25 02:54:19;;;;;;;20.77;10.47;;;4.70;1.00;;;;;;5077001;28;20464;-63
2024/03/25 02:56:45;;;;;;;18.63;10.23;;;4.70;1.00;;;;;;5076821;28;20490;-63
2024/03/25 02:59:12;;;;;;;23.60;11.93;;;4.70;1.00;;;;;;5076823;28;20432;-62
2024/03/25 03:01:40;;;;;;;35.53;13.73;;;4.70;1.00;;;;;;5076543;28;20461;-63
2024/03/25 03:04:07;;;;;;;26.60;13.13;;;4.70;5.70;;;;;;5077083;28;20466;-63
2024/03/25 03:06:33;;;;;;;27.60;14.40;;;4.70;1.00;;;;;;5076773;28;20536;-63
2024/03/25 03:09:00;;;;;;;21.87;11.87;;;4.70;1.00;;;;;;5076532;28;20810;-63
2024/03/25 03:11:27;;;;;;;22.00;12.43;;;4.70;1.00;;;;;;5076619;28;20489;-63
2024/03/25 03:13:54;;;;;;;27.17;13.17;;;4.60;1.00;;;;;;5076963;28;20464;-63
2024/03/25 03:16:20;;;;;;;30.00;12.90;;;4.60;1.00;;;;;;5076800;28;20902;-63
2024/03/25 03:18:49;;;;;;;24.27;13.23;;;4.60;1.00;;;;;;5077157;28;20481;-63
2024/03/25 03:21:15;;;;;;;25.13;12.90;;;4.60;1.00;;;;;;5076589;28;20459;-63
2024/03/25 03:23:42;;;;;;;22.90;12.57;;;4.60;1.00;;;;;;5078312;28;20431;-63
2024/03/25 03:26:08;;;;;;;27.03;12.00;;;4.60;1.00;;;;;;5080431;28;20462;-63
2024/03/25 03:28:38;;;;;;;27.97;11.50;;;4.50;1.00;;;;;;5080486;28;20460;-62
2024/03/25 03:31:04;;;;;;;32.83;12.40;;;4.60;1.00;;;;;;5080748;28;20776;-63
2024/03/25 03:33:32;;;;;;;25.53;11.57;;;4.60;1.00;;;;;;5080253;28;20485;-63
2024/03/25 03:35:59;;;;;;;28.53;12.83;;;4.60;55.90;;;;;;5080088;28;20820;-63
2024/03/25 03:38:26;;;;;;;28.30;11.77;;;4.60;48.30;;;;;;5080497;28;20461;-63
2024/03/25 03:40:57;;;;;;;25.97;12.17;;;4.70;37.20;;;;;;5080082;28;20439;-62
2024/03/25 03:43:24;;;;;;;22.40;10.70;;;4.70;99.90;;;;;;5080185;28;20461;-62
2024/03/25 03:45:50;;;;;;;26.93;11.97;;;4.70;71.20;;;;;;5080078;28;20918;-63
2024/03/25 03:48:18;;;;;;;24.30;12.63;;;4.70;49.40;;;;;;5080022;28;20488;-63
2024/03/25 03:50:44;;;;;;;24.00;13.73;;;4.60;54.10;;;;;;5080222;28;20560;-63
2024/03/25 03:53:13;;;;;;;26.00;12.90;;;4.70;48.20;;;;;;5079662;28;20461;-63
2024/03/25 03:55:39;;;;;;;24.73;12.80;;;4.60;92.40;;;;;;5079777;28;20493;-63
2024/03/25 03:58:07;;;;;;;34.33;15.03;;;4.60;99.90;;;;;;5080067;28;20883;-63
2024/03/25 04:00:34;;;;;;;33.33;15.03;;;4.60;99.90;;;;;;5079744;28;20560;-63
2024/03/25 04:03:02;;;;;;;27.80;14.67;;;4.60;7.30;;;;;;5079850;28;20522;-63
2024/03/25 04:05:31;;;;;;;28.13;15.60;;;4.60;70.10;;;;;;5078652;28;20783;-63
2024/03/25 04:07:58;;;;;;;23.23;14.20;;;4.60;40.70;;;;;;5079075;28;20486;-63
2024/03/25 04:10:27;;;;;;;35.37;15.63;;;4.50;1.00;;;;;;5079378;28;20516;-62
2024/03/25 04:12:55;;;;;;;28.30;14.03;;;4.50;27.20;;;;;;5079318;28;20539;-62
2024/03/25 04:15:22;;;;;;;30.53;15.83;;;4.50;52.90;;;;;;5079370;28;20461;-63
2024/03/25 04:17:49;;;;;;;24.70;13.80;;;4.50;26.10;;;;;;5079644;28;20453;-63
2024/03/25 04:20:16;;;;;;;26.60;13.53;;;4.50;64.60;;;;;;5079610;28;20467;-63
2024/03/25 04:22:44;;;;;;;26.87;15.50;;;4.50;19.10;;;;;;5079401;28;20459;-63
2024/03/25 04:25:11;;;;;;;24.93;14.73;;;4.50;32.50;;;;;;5079300;28;20453;-63
2024/03/25 04:27:39;;;;;;;27.40;13.60;;;4.50;49.50;;;;;;5079400;28;20496;-62
2024/03/25 04:30:07;;;;;;;28.50;14.40;;;4.50;89.40;;;;;;5078753;28;20978;-63
2024/03/25 04:32:35;;;;;;;26.63;14.57;;;4.50;94.90;;;;;;5077831;28;20511;-63
2024/03/25 04:35:02;;;;;;;25.30;14.10;;;4.50;73.60;;;;;;5077577;28;22102;-63
